Terminal Aerodrome Forecast
Issued by NWS Duluth, MN

Home | Current Version | Previous Version | Text Only | Print | Product List | Glossary On
Versions: 1 2 3 4 5 6 7 8 9 10 11 12 13 14 15 16 17 18 19 20 21
000
FTUS43 KDLH 050531
TAFDLH
TAF
KDLH 050531Z 0506/0606 13005KT P6SM SCT050
     FM050900 16004KT 6SM HZ FU SCT250 WS015/23035KT
      TEMPO 0509/0512 4SM BR SCT002
     FM051900 19012G20KT P6SM SCT250
     FM060000 10010KT P6SM VCTS BKN050CB PROB30 0603/0606 3SM TSRA
      OVC025CB=

USA.gov is the U.S. government's official web portal to all federal, state and local government web resources and services.